Latest Weather Observations for Coolangatta

IDQ60801

Issued at 11:42 pm EST Tuesday 23 July 2019 (issued every 10 minutes, with the page automatically refreshed every 10 minutes)

About weather observations | Map of weather stations | Latest weather observations for QLD | Other Formats
Station Details ID: 040717 Name: COOLANGATTA Lat: -28.17 Lon: 153.51 Height: 4.0 m
Data from the previous 72 hours. | See also: Recent months at Coolangatta
Date/Time
EST
Temp
°C
App
Temp
°C
Dew
Point
°C
Rel
Hum
%
Delta-T
°C
Wind Press
QNH
hPa
Press
MSL
hPa
Rain since
9am
mm
Dir  Spd
km/h
Gust
km/h
Spd
kts
Gust
kts
23/11:30pm 12.6 12.2 12.4 99 0.1 NW 6 6 3 3 1020.6 1020.6 0.0
23/11:00pm 13.2 13.8 13.0 99 0.1 WSW 2 6 1 3 1020.5 1020.5 0.0
23/10:30pm 14.5 15.5 14.3 99 0.1 SW 2 6 1 3 1020.7 1020.7 0.0
23/10:00pm 15.1 15.0 14.9 99 0.1 W 9 13 5 7 1020.5 1020.5 0.0
23/09:30pm 16.2 15.8 15.1 93 0.6 NW 11 13 6 7 1020.2 1020.2 0.0
23/09:00pm 17.2 16.5 15.5 90 1.0 NNW 13 15 7 8 1020.3 1020.3 0.0
23/08:30pm 16.8 17.0 15.7 93 0.6 NNW 9 13 5 7 1020.3 1020.3 0.0
23/08:00pm 15.9 16.0 15.6 98 0.2 NW 9 11 5 6 1020.2 1020.2 0.0
23/07:30pm 16.4 17.1 16.2 99 0.1 NW 7 9 4 5 1019.9 1019.9 0.0
23/07:00pm 17.8 19.1 17.6 99 0.1 WNW 7 9 4 5 1019.6 1019.6 0.0
23/06:30pm 19.7 19.4 17.3 86 1.5 N 15 19 8 10 1019.0 1019.0 0.0
23/06:00pm 19.7 20.2 19.2 97 0.3 N 15 17 8 9 1018.8 1018.8 0.0
23/05:30pm 20.0 20.4 19.0 94 0.6 N 15 19 8 10 1018.5 1018.5 0.0
23/05:00pm 20.5 20.5 19.0 91 0.9 NNE 17 20 9 11 1018.2 1018.2 0.0
23/04:30pm 21.4 21.9 19.3 88 1.3 NE 15 19 8 10 1018.0 1018.0 0.0
23/04:00pm 21.5 21.2 19.1 86 1.5 NNE 19 22 10 12 1017.8 1017.8 0.0
23/03:30pm 21.9 21.6 19.1 84 1.8 NNE 19 26 10 14 1017.9 1017.9 0.0
23/03:00pm 21.9 21.5 19.3 85 1.6 NNE 20 24 11 13 1017.9 1017.9 0.0
23/02:30pm 22.3 21.9 19.3 83 1.9 NNE 20 28 11 15 1018.0 1018.0 0.0
23/02:00pm 22.7 22.4 19.1 80 2.3 NNE 19 24 10 13 1018.1 1018.1 0.0
23/01:30pm 22.7 23.0 18.7 78 2.5 NE 15 20 8 11 1018.2 1018.2 0.0
23/01:00pm 22.4 22.4 18.0 76 2.7 NNE 15 19 8 10 1018.7 1018.7 0.0
23/12:30pm 22.1 22.0 17.9 77 2.6 NNE 15 20 8 11 1019.3 1019.3 0.0
23/12:00pm 21.4 21.3 17.8 80 2.2 NNE 15 19 8 10 1019.9 1019.9 0.0
23/11:30am 20.8 20.0 17.0 79 2.3 N 17 20 9 11 1020.3 1020.3 0.0
23/11:00am 21.1 20.4 17.3 79 2.3 N 17 20 9 11 1020.8 1020.8 0.0
23/10:30am 20.8 20.4 17.2 80 2.2 N 15 20 8 11 1021.0 1021.0 0.0
23/10:00am 20.8 20.4 17.2 80 2.2 N 15 17 8 9 1021.2 1021.2 0.0
23/09:30am 19.8 20.0 16.8 83 1.8 NNW 11 17 6 9 1021.3 1021.3 0.0
23/09:00am 18.7 19.3 15.9 84 1.7 NW 7 9 4 5 1021.3 1021.3 0.0
23/08:30am 16.7 17.5 15.9 95 0.5 WSW 6 9 3 5 1021.2 1021.2 0.0
23/08:00am 14.6 14.7 14.4 99 0.1 WSW 7 9 4 5 1021.0 1021.0 0.0
23/07:30am 13.0 12.2 12.8 99 0.1 WSW 9 11 5 6 1020.7 1020.7 0.0
23/07:00am 12.2 11.1 12.0 99 0.1 WSW 9 11 5 6 1020.5 1020.5 0.0
23/06:30am 12.2 11.5 12.0 99 0.1 WSW 7 9 4 5 1020.2 1020.2 0.0
23/06:00am 13.6 12.6 13.4 99 0.1 NW 11 15 6 8 1019.7 1019.7 0.0
23/05:30am 14.3 14.8 14.1 99 0.1 NW 4 7 2 4 1019.4 1019.4 0.0
23/05:00am 14.9 14.7 14.7 99 0.1 NNW 9 13 5 7 1019.2 1019.2 0.0
23/04:30am 13.6 12.6 13.4 99 0.1 NW 11 13 6 7 1019.1 1019.1 0.0
23/04:00am 12.8 12.3 12.6 99 0.1 NW 7 9 4 5 1019.1 1019.1 0.0
23/03:30am 11.8 10.2 11.6 99 0.1 WNW 11 11 6 6 1019.1 1019.1 0.0
23/03:00am 12.4 11.8 12.2 99 0.1 WNW 7 9 4 5 1019.2 1019.2 0.0
23/02:30am 13.1 11.9 12.9 99 0.1 WNW 11 13 6 7 1019.2 1019.2 0.0
23/02:00am 13.9 13.4 13.7 99 0.1 WNW 9 11 5 6 1019.2 1019.2 0.0
23/01:30am 14.6 13.9 14.4 99 0.1 WNW 11 13 6 7 1019.4 1019.4 0.0
23/01:00am 15.1 14.2 14.8 98 0.2 WNW 13 17 7 9 1019.6 1019.6 0.0
23/12:30am 14.8 14.2 14.6 99 0.1 WNW 11 15 6 8 1019.7 1019.7 0.0
23/12:00am 13.0 12.2 12.8 99 0.1 WNW 9 13 5 7 1019.8 1019.8 0.0
 
Date/Time
EST
Temp
°C
App
Temp
°C
Dew
Point
°C
Rel
Hum
%
Delta-T
°C
Wind Press
QNH
hPa
Press
MSL
hPa
Rain since
9am
mm
Dir  Spd
km/h
Gust
km/h
Spd
kts
Gust
kts
22/11:30pm 12.3 11.6 12.1 99 0.1 W 7 9 4 5 1019.8 1019.8 0.0
22/11:00pm 14.1 13.6 13.9 99 0.1 WNW 9 11 5 6 1019.8 1019.8 0.0
22/10:30pm 13.4 12.7 13.2 99 0.1 WNW 9 11 5 6 1019.8 1019.8 0.0
22/10:00pm 14.8 14.6 14.6 99 0.1 WNW 9 11 5 6 1019.7 1019.7 0.0
22/09:30pm 14.6 14.3 14.4 99 0.1 WNW 9 11 5 6 1019.7 1019.7 0.0
22/09:00pm 13.2 12.8 13.0 99 0.1 WNW 7 11 4 6 1019.5 1019.5 0.0
22/08:30pm 13.9 13.7 13.7 99 0.1 WSW 7 9 4 5 1019.3 1019.3 0.0
22/08:00pm 14.2 14.1 14.0 99 0.1 WSW 7 7 4 4 1019.0 1019.0 0.0
22/07:30pm 14.8 15.1 14.6 99 0.1 W 6 9 3 5 1018.9 1018.9 0.0
22/07:00pm 15.6 15.7 15.4 99 0.1 WSW 9 11 5 6 1018.8 1018.8 0.0
22/06:30pm 16.0 16.6 15.7 98 0.2 WNW 7 9 4 5 1018.3 1018.3 0.0
22/06:00pm 17.5 17.9 16.2 92 0.8 NNW 9 11 5 6 1018.1 1018.1 0.0
22/05:30pm 18.4 17.8 16.7 90 1.0 N 15 19 8 10 1017.8 1017.8 0.0
22/05:00pm 18.8 18.7 16.9 89 1.1 N 13 17 7 9 1017.5 1017.5 0.0
22/04:30pm 19.5 18.9 17.6 89 1.2 NNE 17 22 9 12 1017.3 1017.3 0.0
22/04:00pm 20.0 18.7 17.2 84 1.7 NNE 20 28 11 15 1016.9 1016.9 0.0
22/03:30pm 20.6 19.4 17.4 82 2.0 NNE 20 26 11 14 1016.9 1016.9 0.0
22/03:00pm 20.8 19.6 17.4 81 2.1 NNE 20 28 11 15 1016.8 1016.8 0.0
22/02:30pm 21.4 20.2 17.6 79 2.3 NNE 20 28 11 15 1016.9 1016.9 0.0
22/02:00pm 21.0 19.7 17.2 79 2.3 NNE 20 26 11 14 1016.9 1016.9 0.0
22/01:30pm 20.5 18.8 17.1 81 2.1 N 22 26 12 14 1017.1 1017.1 0.0
22/01:00pm 20.9 19.2 17.1 79 2.3 N 22 30 12 16 1017.4 1017.4 0.0
22/12:30pm 20.3 18.2 16.3 78 2.4 N 22 30 12 16 1017.9 1017.9 0.0
22/12:00pm 21.2 18.5 16.6 75 2.8 N 26 32 14 17 1018.3 1018.3 0.0
22/11:30am 21.3 19.6 17.3 78 2.5 N 22 26 12 14 1019.0 1019.0 0.0
22/11:00am 21.3 19.5 16.0 72 3.2 N 20 24 11 13 1019.3 1019.3 0.0
22/10:30am 21.7 20.3 14.6 64 4.2 NNW 15 28 8 15 1019.6 1019.6 0.0
22/10:00am 21.0 19.7 14.9 68 3.6 NW 15 20 8 11 1019.8 1019.8 0.0
22/09:30am 20.3 19.6 15.3 73 3.0 WNW 13 20 7 11 1020.1 1020.1 0.0
22/09:00am 19.1 19.5 15.4 79 2.2 WSW 7 9 4 5 1020.2 1020.2 0.0
22/08:30am 16.8 16.1 14.4 86 1.4 WSW 11 13 6 7 1019.9 1019.9 0.0
22/08:00am 14.2 13.4 14.0 99 0.1 W 11 13 6 7 1019.8 1019.8 0.0
22/07:30am 11.5 9.4 11.3 99 0.1 WSW 13 15 7 8 1019.5 1019.5 0.0
22/07:00am 10.3 8.7 10.1 99 0.1 WSW 9 13 5 7 1019.2 1019.2 0.0
22/06:30am 10.0 8.7 9.9 99 0.1 WSW 7 13 4 7 1019.1 1019.1 0.0
22/06:00am 10.1 8.8 10.0 99 0.1 SW 7 13 4 7 1018.9 1018.9 0.0
22/05:30am 10.1 9.0 10.0 99 0.1 WSW 6 9 3 5 1018.6 1018.6 0.0
22/05:00am 9.8 7.7 9.7 99 0.0 W 11 13 6 7 1018.5 1018.5 0.0
22/04:30am 10.2 9.5 10.1 99 0.1 NNW 4 9 2 5 1018.1 1018.1 0.0
22/04:00am 9.5 7.3 9.4 99 0.0 N 11 15 6 8 1018.2 1018.2 0.0
22/03:30am 9.1 8.9 9.0 99 0.0 CALM 0 0 0 0 1018.2 1018.2 0.0
22/03:00am 9.5 8.1 9.4 99 0.0 WSW 7 9 4 5 1018.3 1018.3 0.0
22/02:30am 9.6 8.2 9.5 99 0.0 WSW 7 9 4 5 1018.4 1018.4 0.0
22/02:00am 10.0 8.3 9.9 99 0.1 WSW 9 11 5 6 1018.6 1018.6 0.0
22/01:30am 10.5 8.9 10.3 99 0.1 WSW 9 11 5 6 1018.9 1018.9 0.0
22/01:00am 11.1 10.3 10.9 99 0.1 W 6 7 3 4 1019.2 1019.2 0.0
22/12:30am 11.4 10.5 11.2 99 0.1 W 7 9 4 5 1019.6 1019.6 0.0
22/12:00am 12.9 11.7 12.7 99 0.1 W 11 13 6 7 1019.8 1019.8 0.0
 
Date/Time
EST
Temp
°C
App
Temp
°C
Dew
Point
°C
Rel
Hum
%
Delta-T
°C
Wind Press
QNH
hPa
Press
MSL
hPa
Rain since
9am
mm
Dir  Spd
km/h
Gust
km/h
Spd
kts
Gust
kts
21/11:30pm 10.7 9.2 10.5 99 0.1 W 9 11 5 6 1020.0 1020.0 0.0
21/11:00pm 11.4 9.7 11.2 99 0.1 WSW 11 13 6 7 1020.1 1020.1 0.0
21/10:30pm 10.7 9.6 10.5 99 0.1 W 7 9 4 5 1019.9 1019.9 0.0
21/10:00pm 11.5 9.9 10.2 92 0.7 W 9 11 5 6 1020.2 1020.2 0.0
21/09:30pm 12.3 11.1 11.5 95 0.4 W 9 13 5 7 1020.4 1020.4 0.0
21/09:00pm 12.1 10.6 10.5 90 0.8 W 9 11 5 6 1020.2 1020.2 0.0
21/08:30pm 14.0 11.9 11.0 82 1.6 WNW 13 15 7 8 1020.0 1020.0 0.0
21/08:00pm 13.6 11.9 11.1 85 1.3 WNW 11 15 6 8 1019.9 1019.9 0.0
21/07:30pm 15.3 13.5 10.9 75 2.3 WNW 11 13 6 7 1019.5 1019.5 0.0
21/07:00pm 17.5 14.4 11.5 68 3.3 N 19 26 10 14 1019.2 1019.2 0.0
21/06:30pm 17.9 14.8 11.7 67 3.4 N 19 24 10 13 1019.0 1019.0 0.0
21/06:00pm 18.2 14.9 11.5 65 3.7 N 20 26 11 14 1018.7 1018.7 0.0
21/05:30pm 18.0 14.8 11.3 65 3.6 N 19 24 10 13 1018.5 1018.5 0.0
21/05:00pm 18.6 15.6 11.9 65 3.7 N 19 26 10 14 1018.2 1018.2 0.0
21/04:30pm 19.3 16.0 11.6 61 4.2 NNE 20 28 11 15 1018.0 1018.0 0.0
21/04:00pm 19.7 15.8 12.2 62 4.2 NNE 24 30 13 16 1017.8 1017.8 0.0
21/03:30pm 20.0 16.0 11.8 59 4.5 NNE 24 32 13 17 1017.9 1017.9 0.0
21/03:00pm 20.2 16.1 11.4 57 4.8 NNE 24 32 13 17 1018.2 1018.2 0.0
21/02:30pm 20.9 16.9 11.8 56 5.1 NNE 24 30 13 16 1018.3 1018.3 0.0
21/02:00pm 20.7 17.7 13.6 64 4.1 NNE 22 28 12 15 1018.4 1018.4 0.0
21/01:30pm 20.7 18.0 13.6 64 4.1 NNE 20 26 11 14 1018.9 1018.9 0.0
21/01:00pm 20.6 17.5 13.3 63 4.2 NNE 22 28 12 15 1019.4 1019.4 0.0
21/12:30pm 20.5 17.3 13.0 62 4.3 N 22 28 12 15 1019.9 1019.9 0.0
21/12:00pm 20.2 17.9 12.9 63 4.1 N 17 24 9 13 1020.5 1020.5 0.0
21/11:30am 20.2 17.7 12.2 60 4.5 N 17 20 9 11 1021.2 1021.2 0.0
21/11:00am 20.2 17.9 12.9 63 4.1 N 17 20 9 11 1021.6 1021.6 0.0
21/10:30am 20.0 17.9 12.3 61 4.3 N 15 20 8 11 1022.0 1022.0 0.0
21/10:00am 20.4 18.6 12.1 59 4.6 NNW 13 20 7 11 1022.4 1022.4 0.0
21/09:30am 19.1 18.3 12.8 67 3.5 NW 9 15 5 8 1022.7 1022.7 0.0
21/09:00am 16.7 16.8 13.8 83 1.6 W 6 9 3 5 1022.7 1022.7 0.0
21/08:30am 14.3 15.6 14.1 99 0.1 CALM 0 0 0 0 1022.5 1022.5 0.0
21/08:00am 11.7 12.2 11.7 100 0.0 CALM 0 0 0 0 1022.5 1022.5 0.0
21/07:30am 9.6 9.5 9.5 99 0.0 CALM 0 0 0 0 1022.3 1022.3 0.0
21/07:14am 7.4 6.8 7.3 99 0.0 CALM 0 0 0 0 1022.3 1022.3 0.0
21/07:00am 6.5 5.7 6.4 99 0.0 CALM 0 0 0 0 1022.3 1022.3 0.0
21/06:49am 7.2 6.5 7.1 99 0.0 CALM 0 0 0 0 1022.2 1022.2 0.0
21/06:30am 6.4 5.6 6.3 99 0.0 CALM 0 0 0 0 1022.0 1022.0 0.0
21/06:06am 7.2 6.5 7.1 99 0.0 CALM 0 0 0 0 1021.8 1021.8 0.0
21/06:00am 7.3 6.7 7.2 99 0.0 CALM 0 0 0 0 1021.8 1021.8 0.0
21/05:37am 7.1 6.4 7.0 99 0.0 CALM 0 0 0 0 1021.7 1021.7 0.0
21/05:30am 7.9 7.4 7.8 99 0.0 CALM 0 0 0 0 1021.7 1021.7 0.0
21/05:04am 8.2 7.4 8.1 99 0.0 SW 2 6 1 3 1021.4 1021.4 0.0
21/05:00am 8.0 6.8 7.9 99 0.0 SW 4 6 2 3 1021.4 1021.4 0.0
21/04:45am 7.3 5.5 7.2 99 0.0 SW 6 6 3 3 1021.4 1021.4 0.0
21/04:40am 9.2 7.9 9.1 99 0.0 SW 6 7 3 4 1021.3 1021.3 0.0
21/04:30am 7.4 5.6 7.3 99 0.0 SW 6 7 3 4 1021.5 1021.5 0.0
21/04:23am 8.3 6.7 8.2 99 0.0 SW 6 7 3 4 1021.5 1021.5 0.0
21/04:11am 7.8 6.1 7.7 99 0.0 SW 6 7 3 4 1021.7 1021.7 0.0
21/04:00am 9.2 8.3 9.1 99 0.0 SW 4 6 2 3 1021.8 1021.8 0.0
21/03:36am 8.1 6.5 8.0 99 0.0 SW 6 7 3 4 1022.0 1022.0 0.0
21/03:30am 8.5 7.4 8.4 99 0.0 SW 4 7 2 4 1022.0 1022.0 0.0
21/03:29am 8.7 7.6 8.6 99 0.0 SW 4 7 2 4 1022.0 1022.0 0.0
21/03:08am 8.9 7.5 8.8 99 0.0 SW 6 7 3 4 1021.9 1021.9 0.0
21/03:00am 8.3 7.1 8.2 99 0.0 SW 4 7 2 4 1022.0 1022.0 0.0
21/02:56am 8.5 7.4 8.4 99 0.0 SW 4 7 2 4 1022.0 1022.0 0.0
21/02:30am 8.3 7.5 8.2 99 0.0 SW 2 6 1 3 1021.9 1021.9 0.0
21/02:29am 8.1 7.3 8.0 99 0.0 SW 2 6 1 3 1021.9 1021.9 0.0
21/02:27am 7.9 7.0 7.8 99 0.0 SW 2 6 1 3 1021.9 1021.9 0.0
21/02:15am 8.3 7.9 8.2 99 0.0 CALM 0 0 0 0 1022.0 1022.0 0.0
21/02:06am 8.4 8.0 8.3 99 0.0 CALM 0 0 0 0 1022.1 1022.1 0.0
21/02:00am 9.2 9.0 9.1 99 0.0 CALM 0 0 0 0 1022.1 1022.1 0.0
21/01:30am 9.6 9.5 9.5 99 0.0 CALM 0 0 0 0 1022.3 1022.3 0.0
21/01:19am 9.5 9.4 9.4 99 0.0 CALM 0 0 0 0 1022.4 1022.4 0.0
21/01:04am 9.9 9.9 9.8 99 0.1 CALM 0 0 0 0 1022.4 1022.4 0.0
21/01:00am 9.7 9.6 9.6 99 0.0 CALM 0 6 0 3 1022.4 1022.4 0.0
21/12:44am 9.6 9.5 9.5 99 0.0 CALM 0 0 0 0 1022.5 1022.5 0.0
21/12:30am 9.7 9.3 9.6 99 0.0 SW 2 7 1 4 1022.5 1022.5 0.0
21/12:00am 10.4 10.5 10.2 99 0.1 CALM 0 0 0 0 1022.7 1022.7 0.0

Other formats

Comma delimited format used in spreadsheet applications
http://www.bom.gov.au/fwo/IDQ60801/IDQ60801.94592.axf

JavaScript Object Notation format (JSON) in row-major order
http://www.bom.gov.au/fwo/IDQ60801/IDQ60801.94592.json

Data quality

Most of these data are generated automatically and are frequently updated. Quality checks on data are not normally performed. It is possible for incorrect values to appear. Refer to information at About Latest Weather Observations and please check the disclaimer before using these data.